Portada
METAR-TAF:

METAR-TAF

Aeropuertos :

Aeropuerto Internacional Daniel Oduber

Liberia, Costa Rica

latitud: 10-37N, longitud: 085-26W, altitud: 80 m

Observación

El informe se hizo hace 1 hora y 13 minutos, a las 14:00 UTC
Viento 3 kt del noroeste
Temperatura 29°C
Humedad 62%
Presión 1011 hPa
Visibilidad 10 km o más
sin nubes por debajo de 1500 m y sin presencia de cumulonimbus.

METAR: MRLB 011400Z 31003KT CAVOK 29/21 A2986

Hora: 09:13 (15:13 UTC)

Pronóstico

El informe se hizo hace 4 horas y 13 minutos, a las 11:00 UTC
Pronóstico válido del 01 a las 12 UTC al 02 a las 12 UTC
Viento 6 kt del oeste
Visibilidad 10 km o más
Escasas nubes a una altura de 4500 ft
Temporalmente
del 01 a las 14 UTC al 01 a las 18 UTC
Viento 7 kt del este-noreste
Evolucionando progresivamente
del 02 a las 00 UTC al 02 a las 03 UTC
Viento 10 kt del este

TAF: MRLB 011100Z 0112/0212 26006KT 9999 FEW045 TX37/0120Z TN22/0212Z TEMPO 0114/0118 06007KT BECMG 0200/0203 08010KT

Observaciones y pronósticos meteorológicos de más de 4000 aeropuertos (mensajes METAR y TAF).

Los puntos amarillos y rojos representan las estaciones disponibles.

Ponga el ratón en el punto deseado para ver el nombre de la estación.

Haga clic para ver las observaciones y los pronósticos meteorológicos.

Para cambiar el mapa : haga clic en los botones verdes con una cruz de color negro para hacer un zoom, en el botón verde con un guión para alejar o en las flechas verdes para mapas adyacentes.


METAR-TAF: